createdAt,value
2023-01-08T00:00:04.028Z,1.20
2023-01-08T00:02:30.410Z,1.87
2023-01-08T00:04:56.748Z,1.40
2023-01-08T00:07:23.066Z,2.23
2023-01-08T00:09:50.612Z,1.63
2023-01-08T00:12:16.998Z,1.47
2023-01-08T00:14:43.343Z,1.50
2023-01-08T00:17:09.648Z,1.63
2023-01-08T00:19:35.954Z,1.60
2023-01-08T00:22:02.283Z,1.00
2023-01-08T00:24:28.679Z,1.50
2023-01-08T00:26:54.986Z,1.90
2023-01-08T00:29:21.334Z,1.33
2023-01-08T00:31:47.666Z,1.40
2023-01-08T00:34:13.978Z,1.30
2023-01-08T00:36:40.338Z,0.93
2023-01-08T00:39:06.654Z,1.57
2023-01-08T00:41:33.197Z,1.27
2023-01-08T00:43:59.507Z,0.93
2023-01-08T00:46:25.930Z,1.83
2023-01-08T00:48:52.282Z,1.03
2023-01-08T00:51:18.672Z,1.00
2023-01-08T00:53:45.003Z,1.00
2023-01-08T00:56:11.397Z,1.23
2023-01-08T00:58:37.919Z,1.00
2023-01-08T01:01:09.267Z,1.33
2023-01-08T01:03:35.690Z,0.97
2023-01-08T01:06:03.078Z,1.47
2023-01-08T01:08:29.490Z,1.60
2023-01-08T01:10:55.896Z,1.63
2023-01-08T01:13:22.513Z,1.70
2023-01-08T01:15:59.144Z,1.30
2023-01-08T01:18:25.599Z,1.37
2023-01-08T01:20:51.948Z,1.00
2023-01-08T01:23:18.329Z,1.40
2023-01-08T01:25:45.878Z,1.23
2023-01-08T01:28:12.455Z,2.33
2023-01-08T01:30:38.826Z,1.17
2023-01-08T01:33:05.303Z,0.90
2023-01-08T01:35:31.613Z,1.33
2023-01-08T01:37:57.957Z,1.37
2023-01-08T01:40:24.286Z,1.20
2023-01-08T01:42:50.572Z,1.30
2023-01-08T01:45:18.469Z,0.97
2023-01-08T01:47:46.583Z,1.40
2023-01-08T01:50:15.769Z,1.47
2023-01-08T01:52:45.165Z,1.40
2023-01-08T01:55:12.328Z,1.47
2023-01-08T01:57:39.174Z,1.77
2023-01-08T02:00:07.129Z,1.50
2023-01-08T02:02:33.819Z,0.90
2023-01-08T02:05:01.137Z,1.67
2023-01-08T02:07:42.902Z,1.13
2023-01-08T02:10:16.861Z,1.30
2023-01-08T02:13:03.973Z,1.07
2023-01-08T02:15:41.758Z,1.80
2023-01-08T02:18:10.625Z,1.17
2023-01-08T02:20:39.650Z,1.80
2023-01-08T02:23:15.512Z,1.30
2023-01-08T02:26:00.569Z,1.80
2023-01-08T02:28:27.543Z,2.07
2023-01-08T02:30:54.822Z,1.50
2023-01-08T02:33:22.744Z,1.50
2023-01-08T02:35:54.130Z,1.60
2023-01-08T02:38:20.731Z,1.80
2023-01-08T02:41:04.449Z,1.60
2023-01-08T02:43:52.459Z,1.53
2023-01-08T02:46:20.003Z,1.90
2023-01-08T02:48:48.895Z,1.40
2023-01-08T02:51:15.204Z,1.60
2023-01-08T02:53:43.649Z,1.47
2023-01-08T02:56:12.089Z,1.77
2023-01-08T02:58:39.060Z,1.50
2023-01-08T03:01:07.347Z,1.23
2023-01-08T03:03:35.090Z,1.30
2023-01-08T03:06:21.721Z,0.90
2023-01-08T03:08:50.124Z,1.30
2023-01-08T03:11:18.150Z,1.73
2023-01-08T03:13:44.429Z,1.60
2023-01-08T03:16:12.294Z,1.50
2023-01-08T03:18:42.812Z,1.23
2023-01-08T03:21:09.589Z,1.17
2023-01-08T03:23:37.080Z,1.40
2023-01-08T03:26:04.939Z,1.17
2023-01-08T03:28:34.898Z,1.10
2023-01-08T03:31:01.799Z,0.90
2023-01-08T03:33:30.481Z,1.30
2023-01-08T03:35:58.082Z,1.07
2023-01-08T03:38:26.942Z,1.27
2023-01-08T03:40:56.172Z,1.00
2023-01-08T03:43:22.582Z,0.73
2023-01-08T03:45:50.858Z,0.97
2023-01-08T03:48:18.462Z,1.83
2023-01-08T03:50:44.871Z,0.80
2023-01-08T03:53:11.227Z,0.90
2023-01-08T03:55:37.570Z,1.40
2023-01-08T03:58:03.877Z,1.23
2023-01-08T04:00:30.221Z,0.90
2023-01-08T04:02:56.751Z,1.83
2023-01-08T04:05:23.091Z,1.00
2023-01-08T04:07:49.450Z,0.80
2023-01-08T04:10:15.823Z,1.10
2023-01-08T04:12:43.342Z,1.20
2023-01-08T04:15:09.922Z,0.97
2023-01-08T04:17:36.228Z,1.10
2023-01-08T04:20:03.240Z,1.50
2023-01-08T04:22:29.556Z,1.40
2023-01-08T04:24:55.870Z,1.10
2023-01-08T04:27:22.192Z,1.00
2023-01-08T04:29:48.614Z,1.27
2023-01-08T04:32:14.927Z,1.43
2023-01-08T04:34:41.347Z,1.00
2023-01-08T04:37:07.651Z,1.17
2023-01-08T04:39:33.996Z,1.53
2023-01-08T04:42:00.395Z,1.17
2023-01-08T04:44:26.885Z,0.80
2023-01-08T04:46:53.290Z,1.13
2023-01-08T04:49:19.793Z,0.63
2023-01-08T04:51:46.125Z,1.07
2023-01-08T04:54:12.436Z,1.13
2023-01-08T04:56:38.753Z,1.37
2023-01-08T04:59:05.388Z,0.90
2023-01-08T05:01:31.919Z,0.97
2023-01-08T05:04:00.960Z,1.50
2023-01-08T05:06:28.216Z,1.13
2023-01-08T05:08:54.669Z,0.90
2023-01-08T05:11:21.066Z,0.87
2023-01-08T05:13:49.001Z,1.10
2023-01-08T05:16:15.534Z,1.20
2023-01-08T05:18:41.882Z,1.30
2023-01-08T05:21:08.193Z,1.40
2023-01-08T05:23:34.698Z,1.17
2023-01-08T05:26:01.955Z,1.57
2023-01-08T05:28:28.290Z,1.40
2023-01-08T05:30:54.811Z,0.90
2023-01-08T05:33:21.407Z,0.70
2023-01-08T05:35:47.717Z,0.87
2023-01-08T05:38:14.327Z,1.07
2023-01-08T05:40:40.651Z,1.00
2023-01-08T05:43:07.385Z,1.00
2023-01-08T05:45:33.742Z,1.23
2023-01-08T05:48:00.215Z,0.80
2023-01-08T05:50:26.589Z,0.93
2023-01-08T05:52:52.927Z,1.03
2023-01-08T05:55:19.295Z,1.40
2023-01-08T05:57:45.615Z,1.10
2023-01-08T06:00:12.349Z,1.50
2023-01-08T06:02:38.727Z,1.13
2023-01-08T06:05:05.395Z,1.30
2023-01-08T06:07:31.738Z,1.50
2023-01-08T06:09:58.090Z,1.30
2023-01-08T06:12:24.441Z,1.63
2023-01-08T06:14:50.777Z,1.63
2023-01-08T06:17:17.280Z,1.47
2023-01-08T06:19:43.617Z,0.97
2023-01-08T06:22:09.933Z,1.37
2023-01-08T06:24:36.239Z,1.00
2023-01-08T06:27:02.561Z,1.27
2023-01-08T06:29:28.936Z,1.70
2023-01-08T06:31:55.233Z,1.70
2023-01-08T06:34:22.621Z,1.20
2023-01-08T06:36:49.398Z,1.40
2023-01-08T06:39:15.705Z,1.40
2023-01-08T06:41:42.669Z,1.20
2023-01-08T06:44:09.086Z,1.10
2023-01-08T06:46:40.223Z,1.20
2023-01-08T06:49:06.972Z,1.33
2023-01-08T06:51:33.583Z,1.60
2023-01-08T06:53:59.995Z,1.80
2023-01-08T06:56:26.447Z,1.17
2023-01-08T06:58:52.771Z,1.40
2023-01-08T07:01:19.241Z,1.30
2023-01-08T07:03:45.917Z,1.57
2023-01-08T07:06:14.283Z,1.30
2023-01-08T07:08:40.712Z,0.97
2023-01-08T07:11:07.072Z,1.40
2023-01-08T07:13:33.397Z,1.23
2023-01-08T07:16:05.144Z,1.30
2023-01-08T07:18:31.601Z,1.80
2023-01-08T07:20:58.032Z,1.60
2023-01-08T07:23:24.383Z,1.57
2023-01-08T07:25:50.681Z,1.00
2023-01-08T07:28:16.994Z,1.40
2023-01-08T07:30:44.744Z,1.70
2023-01-08T07:33:11.314Z,1.90
2023-01-08T07:35:39.090Z,1.10
2023-01-08T07:38:05.589Z,1.40
2023-01-08T07:40:32.094Z,1.60
2023-01-08T07:42:59.517Z,1.40
2023-01-08T07:45:26.555Z,1.43
2023-01-08T07:47:52.900Z,1.50
2023-01-08T07:50:19.313Z,1.17
2023-01-08T07:52:45.611Z,1.00
2023-01-08T07:55:11.970Z,1.70
2023-01-08T07:57:38.301Z,1.20
2023-01-08T08:00:05.077Z,1.10
2023-01-08T08:02:31.532Z,1.80
2023-01-08T08:04:58.018Z,1.30
2023-01-08T08:07:24.349Z,1.90
2023-01-08T08:09:50.723Z,1.50
2023-01-08T08:12:17.027Z,1.10
2023-01-08T08:14:43.357Z,1.00
2023-01-08T08:17:09.761Z,1.27
2023-01-08T08:19:36.058Z,1.07
2023-01-08T08:22:02.454Z,1.17
2023-01-08T08:24:28.907Z,1.80
2023-01-08T08:26:55.319Z,1.37
2023-01-08T08:29:21.630Z,2.10
2023-01-08T08:31:48.063Z,2.37
2023-01-08T08:34:14.497Z,1.07
2023-01-08T08:36:40.808Z,1.30
2023-01-08T08:39:07.128Z,1.70
2023-01-08T08:41:33.433Z,1.30
2023-01-08T08:43:59.752Z,1.43
2023-01-08T08:46:26.157Z,1.83
2023-01-08T08:48:52.504Z,2.00
2023-01-08T08:51:19.962Z,1.33
2023-01-08T08:53:46.363Z,1.27
2023-01-08T08:56:12.687Z,0.90
2023-01-08T08:58:41.684Z,1.20
2023-01-08T09:01:08.534Z,1.27
2023-01-08T09:03:35.154Z,0.97
2023-01-08T09:06:01.653Z,1.13
2023-01-08T09:08:28.104Z,1.53
2023-01-08T09:10:54.433Z,0.80
2023-01-08T09:13:20.785Z,1.10
2023-01-08T09:15:47.226Z,1.70
2023-01-08T09:18:15.919Z,1.37
2023-01-08T09:20:42.507Z,1.23
2023-01-08T09:23:09.416Z,1.70
2023-01-08T09:25:35.745Z,1.60
2023-01-08T09:28:06.614Z,1.70
2023-01-08T09:30:33.308Z,1.00
2023-01-08T09:33:02.327Z,1.10
2023-01-08T09:35:29.727Z,1.40
2023-01-08T09:37:56.077Z,1.23
2023-01-08T09:40:23.806Z,0.87
2023-01-08T09:42:57.928Z,1.43
2023-01-08T09:45:31.674Z,1.10
2023-01-08T09:48:00.368Z,1.47
2023-01-08T09:50:27.838Z,1.33
2023-01-08T09:52:54.388Z,1.23
2023-01-08T09:55:21.112Z,1.40
2023-01-08T09:57:48.109Z,1.23
2023-01-08T10:00:15.571Z,0.83
2023-01-08T10:02:43.287Z,1.13
2023-01-08T10:05:15.427Z,1.17
2023-01-08T10:07:42.108Z,0.93
2023-01-08T10:10:29.514Z,1.57
2023-01-08T10:12:56.013Z,1.13
2023-01-08T10:15:22.838Z,1.03
2023-01-08T10:17:54.632Z,1.50
2023-01-08T10:20:22.434Z,1.40
2023-01-08T10:22:49.099Z,1.03
2023-01-08T10:25:17.284Z,1.30
2023-01-08T10:27:48.529Z,1.10
2023-01-08T10:30:16.296Z,1.60
2023-01-08T10:32:48.383Z,1.10
2023-01-08T10:35:17.209Z,1.20
2023-01-08T10:37:43.574Z,1.27
2023-01-08T10:40:29.683Z,1.50
2023-01-08T10:42:56.866Z,1.50
2023-01-08T10:45:24.863Z,1.27
2023-01-08T10:47:53.063Z,1.10
2023-01-08T10:50:22.444Z,1.63
2023-01-08T10:53:01.898Z,1.33
2023-01-08T10:55:31.465Z,1.23
2023-01-08T10:58:01.908Z,1.47
2023-01-08T11:00:32.640Z,1.90
2023-01-08T11:03:00.293Z,2.23
2023-01-08T11:05:31.118Z,2.00
2023-01-08T11:07:58.679Z,1.20
2023-01-08T11:10:25.704Z,1.40
2023-01-08T11:13:15.173Z,1.53
2023-01-08T11:15:41.707Z,1.83
2023-01-08T11:18:17.814Z,1.13
2023-01-08T11:20:44.667Z,1.83
2023-01-08T11:23:24.699Z,1.37
2023-01-08T11:26:03.564Z,1.20
2023-01-08T11:28:44.101Z,1.60
2023-01-08T11:31:15.180Z,1.47
2023-01-08T11:33:42.120Z,1.20
2023-01-08T11:36:12.716Z,1.60
2023-01-08T11:38:40.530Z,1.60
2023-01-08T11:41:12.877Z,1.43
2023-01-08T11:43:57.994Z,1.47
2023-01-08T11:46:42.844Z,1.33
2023-01-08T11:49:41.467Z,1.60
2023-01-08T11:52:11.895Z,1.87
2023-01-08T11:54:47.055Z,1.20
2023-01-08T11:57:22.555Z,1.67
2023-01-08T12:00:15.186Z,1.20
2023-01-08T12:02:45.055Z,1.10
2023-01-08T12:05:26.639Z,1.30
2023-01-08T12:08:15.772Z,1.40
2023-01-08T12:11:02.095Z,1.30
2023-01-08T12:13:34.471Z,2.13
2023-01-08T12:16:15.914Z,1.37
2023-01-08T12:19:11.585Z,1.60
2023-01-08T12:21:59.976Z,2.00
2023-01-08T12:24:38.509Z,1.63
2023-01-08T12:27:17.846Z,1.73
2023-01-08T12:30:01.520Z,1.67
2023-01-08T12:32:36.393Z,1.40
2023-01-08T12:35:08.998Z,1.37
2023-01-08T12:37:52.015Z,1.40
2023-01-08T12:40:32.182Z,1.30
2023-01-08T12:43:01.669Z,1.03
2023-01-08T12:45:35.141Z,1.30
2023-01-08T12:48:05.387Z,1.53
2023-01-08T12:50:31.679Z,1.30
2023-01-08T12:53:10.186Z,1.20
2023-01-08T12:55:46.447Z,0.60
2023-01-08T12:58:27.892Z,1.03
2023-01-08T13:00:57.505Z,1.53
2023-01-08T13:03:25.865Z,1.10
2023-01-08T13:05:52.571Z,1.03
2023-01-08T13:08:26.421Z,1.63
2023-01-08T13:10:55.871Z,1.10
2023-01-08T13:13:25.398Z,1.40
2023-01-08T13:15:51.983Z,1.27
2023-01-08T13:18:19.807Z,1.30
2023-01-08T13:20:55.857Z,1.23
2023-01-08T13:23:24.860Z,1.50
2023-01-08T13:25:53.028Z,1.40
2023-01-08T13:28:26.884Z,1.10
2023-01-08T13:30:55.627Z,1.10
2023-01-08T13:33:28.088Z,1.10
2023-01-08T13:36:13.821Z,1.30
2023-01-08T13:38:41.088Z,1.03
2023-01-08T13:41:26.288Z,0.80
2023-01-08T13:44:06.560Z,1.13
2023-01-08T13:46:34.684Z,1.53
2023-01-08T13:49:02.762Z,1.40
2023-01-08T13:51:38.580Z,0.97
2023-01-08T13:54:10.040Z,0.97
2023-01-08T13:56:36.440Z,0.93
2023-01-08T13:59:05.494Z,0.77
2023-01-08T14:01:32.013Z,0.83
2023-01-08T14:03:58.464Z,1.30
2023-01-08T14:06:28.205Z,1.13
2023-01-08T14:08:56.652Z,1.10
2023-01-08T14:11:24.103Z,1.27
2023-01-08T14:13:50.767Z,1.03
2023-01-08T14:16:17.484Z,0.90
2023-01-08T14:18:44.682Z,1.10
2023-01-08T14:21:14.778Z,0.90
2023-01-08T14:23:43.183Z,1.43
2023-01-08T14:26:18.593Z,0.97
2023-01-08T14:28:50.843Z,1.13
2023-01-08T14:31:24.661Z,1.00
2023-01-08T14:33:53.189Z,1.50
2023-01-08T14:36:20.448Z,1.23
2023-01-08T14:38:50.825Z,1.57
2023-01-08T14:41:21.673Z,1.63
2023-01-08T14:43:49.835Z,1.33
2023-01-08T14:46:27.038Z,1.40
2023-01-08T14:48:54.526Z,1.87
2023-01-08T14:51:22.386Z,1.30
2023-01-08T14:53:51.445Z,1.80
2023-01-08T14:56:19.869Z,1.40
2023-01-08T14:58:46.695Z,1.43
2023-01-08T15:01:16.238Z,1.50
2023-01-08T15:03:44.055Z,1.60
2023-01-08T15:06:14.075Z,1.50
2023-01-08T15:08:41.672Z,1.60
2023-01-08T15:11:19.856Z,1.63
2023-01-08T15:13:47.227Z,1.33
2023-01-08T15:16:19.488Z,1.70
2023-01-08T15:18:47.235Z,1.93
2023-01-08T15:21:20.618Z,1.90
2023-01-08T15:23:54.790Z,1.47
2023-01-08T15:26:21.945Z,1.40
2023-01-08T15:28:53.885Z,1.43
2023-01-08T15:31:30.707Z,1.40
2023-01-08T15:33:57.960Z,1.30
2023-01-08T15:36:24.510Z,1.10
2023-01-08T15:38:52.224Z,1.80
2023-01-08T15:41:40.200Z,1.00
2023-01-08T15:44:07.111Z,1.13
2023-01-08T15:46:33.469Z,1.67
2023-01-08T15:49:01.933Z,1.63
2023-01-08T15:51:29.968Z,1.30
2023-01-08T15:53:56.353Z,1.40
2023-01-08T15:56:22.677Z,1.30
2023-01-08T15:58:49.076Z,1.30
2023-01-08T16:01:15.544Z,1.30
2023-01-08T16:03:42.019Z,2.27
2023-01-08T16:06:08.636Z,1.00
2023-01-08T16:08:35.050Z,1.33
2023-01-08T16:11:01.435Z,1.20
2023-01-08T16:13:28.017Z,1.00
2023-01-08T16:15:55.418Z,1.50
2023-01-08T16:18:21.861Z,1.63
2023-01-08T16:20:48.241Z,1.33
2023-01-08T16:23:14.563Z,1.60
2023-01-08T16:25:41.089Z,1.50
2023-01-08T16:28:07.426Z,1.50
2023-01-08T16:30:33.851Z,1.27
2023-01-08T16:33:00.187Z,1.40
2023-01-08T16:35:27.572Z,1.50
2023-01-08T16:37:54.021Z,0.93
2023-01-08T16:40:20.579Z,1.43
2023-01-08T16:42:46.914Z,1.60
2023-01-08T16:45:13.341Z,1.60
2023-01-08T16:47:39.952Z,1.30
2023-01-08T16:50:08.037Z,1.30
2023-01-08T16:52:34.492Z,1.30
2023-01-08T16:55:00.935Z,1.10
2023-01-08T16:57:27.308Z,1.37
2023-01-08T16:59:53.607Z,1.23
2023-01-08T17:02:19.915Z,1.20
2023-01-08T17:04:46.293Z,0.97
2023-01-08T17:07:15.734Z,1.43
2023-01-08T17:09:42.054Z,1.37
2023-01-08T17:12:08.443Z,1.20
2023-01-08T17:14:36.601Z,0.80
2023-01-08T17:17:04.042Z,1.20
2023-01-08T17:19:30.465Z,1.30
2023-01-08T17:21:56.897Z,1.40
2023-01-08T17:24:23.295Z,0.97
2023-01-08T17:26:49.588Z,1.20
2023-01-08T17:29:15.908Z,1.60
2023-01-08T17:31:42.270Z,1.77
2023-01-08T17:34:12.154Z,1.10
2023-01-08T17:36:38.501Z,1.50
2023-01-08T17:39:04.824Z,1.30
2023-01-08T17:41:49.712Z,1.40
2023-01-08T17:44:16.220Z,1.57
2023-01-08T17:46:45.027Z,1.47
2023-01-08T17:49:15.371Z,1.43
2023-01-08T17:51:42.166Z,1.50
2023-01-08T17:54:15.852Z,1.40
2023-01-08T17:56:42.492Z,1.40
2023-01-08T17:59:12.250Z,1.77
2023-01-08T18:01:38.584Z,1.30
2023-01-08T18:04:05.023Z,1.70
2023-01-08T18:06:31.366Z,1.60
2023-01-08T18:08:57.761Z,1.30
2023-01-08T18:11:25.430Z,1.03
2023-01-08T18:13:55.721Z,1.80
2023-01-08T18:16:22.671Z,1.93
2023-01-08T18:18:49.018Z,1.20
2023-01-08T18:21:15.366Z,1.50
2023-01-08T18:23:42.403Z,1.53
2023-01-08T18:26:12.128Z,1.33
2023-01-08T18:28:38.951Z,1.43
2023-01-08T18:31:06.039Z,1.20
2023-01-08T18:33:32.492Z,1.40
2023-01-08T18:36:09.510Z,1.40
2023-01-08T18:38:39.811Z,1.30
2023-01-08T18:41:07.093Z,1.10
2023-01-08T18:43:35.472Z,1.67
2023-01-08T18:46:04.382Z,1.50
2023-01-08T18:48:31.192Z,1.70
2023-01-08T18:50:57.583Z,1.60
2023-01-08T18:53:24.078Z,2.07
2023-01-08T18:55:50.496Z,1.83
2023-01-08T18:58:16.915Z,1.43
2023-01-08T19:00:43.432Z,1.30
2023-01-08T19:03:12.238Z,1.20
2023-01-08T19:05:42.738Z,1.77
2023-01-08T19:08:09.203Z,2.00
2023-01-08T19:10:37.988Z,1.20
2023-01-08T19:13:04.977Z,1.17
2023-01-08T19:15:31.455Z,1.07
2023-01-08T19:17:59.710Z,1.43
2023-01-08T19:20:26.515Z,1.70
2023-01-08T19:22:53.033Z,1.50
2023-01-08T19:25:19.360Z,1.43
2023-01-08T19:27:46.824Z,1.43
2023-01-08T19:30:13.215Z,1.40
2023-01-08T19:32:39.750Z,1.20
2023-01-08T19:35:06.215Z,1.40
2023-01-08T19:37:32.658Z,1.77
2023-01-08T19:40:01.595Z,1.07
2023-01-08T19:42:47.248Z,1.27
2023-01-08T19:45:13.624Z,1.70
2023-01-08T19:47:39.945Z,1.63
2023-01-08T19:50:06.574Z,1.50
2023-01-08T19:52:33.055Z,1.70
2023-01-08T19:55:01.537Z,1.30
2023-01-08T19:57:28.115Z,1.40
2023-01-08T19:59:54.448Z,1.37
2023-01-08T20:02:21.004Z,2.37
2023-01-08T20:04:47.533Z,2.13
2023-01-08T20:07:14.407Z,1.40
2023-01-08T20:09:41.961Z,2.23
2023-01-08T20:12:08.547Z,2.00
2023-01-08T20:14:34.845Z,2.30
2023-01-08T20:17:01.698Z,1.67
2023-01-08T20:19:30.961Z,1.60
2023-01-08T20:21:58.189Z,1.50
2023-01-08T20:24:25.014Z,1.43
2023-01-08T20:26:51.441Z,2.07
2023-01-08T20:29:18.135Z,1.40
2023-01-08T20:31:44.542Z,2.23
2023-01-08T20:34:12.183Z,1.83
2023-01-08T20:36:38.596Z,2.07
2023-01-08T20:39:06.426Z,2.30
2023-01-08T20:41:32.878Z,1.73
2023-01-08T20:43:59.305Z,2.17
2023-01-08T20:46:29.904Z,2.07
2023-01-08T20:48:57.120Z,2.50
2023-01-08T20:51:23.517Z,2.00
2023-01-08T20:53:49.883Z,2.23
2023-01-08T20:56:16.387Z,3.00
2023-01-08T20:58:44.638Z,3.10
2023-01-08T21:01:13.024Z,2.40
2023-01-08T21:03:39.649Z,3.13
2023-01-08T21:06:16.830Z,2.13
2023-01-08T21:08:44.131Z,2.30
2023-01-08T21:11:11.457Z,3.30
2023-01-08T21:13:38.648Z,3.33
2023-01-08T21:16:07.809Z,3.00
2023-01-08T21:18:34.250Z,2.77
2023-01-08T21:21:01.560Z,1.90
2023-01-08T21:23:28.457Z,1.40
2023-01-08T21:25:55.800Z,1.67
2023-01-08T21:28:22.122Z,1.83
2023-01-08T21:30:48.483Z,1.47
2023-01-08T21:33:14.798Z,0.80
2023-01-08T21:35:43.229Z,0.90
2023-01-08T21:38:09.742Z,1.50
2023-01-08T21:40:36.082Z,0.70
2023-01-08T21:43:20.964Z,0.90
2023-01-08T21:45:51.022Z,0.97
2023-01-08T21:48:17.416Z,0.73
2023-01-08T21:50:43.713Z,0.80
2023-01-08T21:53:28.926Z,0.50
2023-01-08T21:55:55.218Z,0.70
2023-01-08T21:58:21.513Z,0.90
2023-01-08T22:00:47.844Z,0.60
2023-01-08T22:03:14.183Z,0.80
2023-01-08T22:05:40.546Z,0.60
2023-01-08T22:08:08.641Z,0.87
2023-01-08T22:10:35.162Z,0.93
2023-01-08T22:13:01.583Z,0.73
2023-01-08T22:15:27.884Z,0.73
2023-01-08T22:17:55.263Z,0.87
2023-01-08T22:20:21.577Z,0.77
2023-01-08T22:22:49.128Z,0.70
2023-01-08T22:25:16.530Z,0.73
2023-01-08T22:27:42.851Z,0.60
2023-01-08T22:30:09.951Z,0.60
2023-01-08T22:32:36.246Z,0.60
2023-01-08T22:35:02.997Z,0.83
2023-01-08T22:37:29.464Z,0.50
2023-01-08T22:39:55.780Z,0.40
2023-01-08T22:42:23.246Z,0.83
2023-01-08T22:44:49.669Z,0.50
2023-01-08T22:47:16.071Z,0.77
2023-01-08T22:49:42.380Z,0.70
2023-01-08T22:52:10.005Z,0.43
2023-01-08T22:54:37.028Z,0.83
2023-01-08T22:57:03.387Z,0.80
2023-01-08T22:59:29.752Z,0.50
2023-01-08T23:01:56.110Z,0.50
2023-01-08T23:04:22.594Z,0.80
2023-01-08T23:06:49.003Z,0.80
2023-01-08T23:09:15.351Z,0.60
2023-01-08T23:11:41.871Z,0.60
2023-01-08T23:14:09.413Z,0.47
2023-01-08T23:16:35.938Z,0.60
2023-01-08T23:19:03.427Z,0.50
2023-01-08T23:21:29.863Z,0.60
2023-01-08T23:23:56.529Z,0.70
2023-01-08T23:26:24.341Z,0.50
2023-01-08T23:28:51.590Z,0.40
2023-01-08T23:31:19.371Z,0.70
2023-01-08T23:33:45.944Z,0.50
2023-01-08T23:36:18.097Z,0.50
2023-01-08T23:38:46.350Z,0.87
2023-01-08T23:41:13.015Z,0.80
2023-01-08T23:43:39.415Z,1.00
2023-01-08T23:46:06.324Z,0.70
2023-01-08T23:48:33.031Z,0.50
2023-01-08T23:50:59.404Z,0.77
2023-01-08T23:53:25.761Z,0.80
2023-01-08T23:55:52.111Z,0.73
2023-01-08T23:58:18.578Z,0.77
